createdAt,value
2023-02-20T00:00:42.633Z,2.67
2023-02-20T00:03:16.565Z,3.07
2023-02-20T00:05:47.628Z,3.30
2023-02-20T00:08:18.619Z,3.00
2023-02-20T00:10:50.055Z,2.97
2023-02-20T00:13:21.009Z,3.40
2023-02-20T00:15:52.024Z,3.17
2023-02-20T00:18:22.918Z,2.77
2023-02-20T00:20:53.780Z,3.37
2023-02-20T00:23:24.689Z,4.00
2023-02-20T00:25:55.534Z,2.77
2023-02-20T00:28:26.496Z,3.37
2023-02-20T00:30:58.120Z,3.17
2023-02-20T00:33:31.285Z,2.77
2023-02-20T00:36:02.136Z,2.80
2023-02-20T00:38:33.040Z,2.70
2023-02-20T00:41:03.988Z,2.33
2023-02-20T00:43:36.926Z,3.20
2023-02-20T00:46:11.794Z,3.20
2023-02-20T00:48:43.908Z,2.73
2023-02-20T00:51:14.759Z,2.83
2023-02-20T00:53:45.644Z,2.70
2023-02-20T00:56:16.849Z,2.80
2023-02-20T00:58:47.731Z,3.17
2023-02-20T01:01:19.052Z,2.80
2023-02-20T01:03:49.922Z,2.80
2023-02-20T01:06:20.772Z,3.10
2023-02-20T01:08:52.416Z,2.57
2023-02-20T01:11:23.639Z,2.87
2023-02-20T01:13:54.488Z,2.70
2023-02-20T01:16:25.379Z,2.63
2023-02-20T01:18:56.317Z,2.63
2023-02-20T01:21:27.215Z,3.03
2023-02-20T01:23:58.064Z,2.77
2023-02-20T01:26:29.047Z,3.83
2023-02-20T01:28:59.867Z,2.70
2023-02-20T01:31:31.019Z,2.93
2023-02-20T01:34:02.068Z,2.70
2023-02-20T01:36:34.373Z,3.13
2023-02-20T01:39:05.208Z,2.40
2023-02-20T01:41:36.102Z,3.07
2023-02-20T01:44:22.052Z,2.43
2023-02-20T01:46:58.941Z,2.97
2023-02-20T01:49:49.638Z,2.70
2023-02-20T01:52:29.489Z,3.00
2023-02-20T01:55:13.005Z,3.50
2023-02-20T01:57:52.139Z,2.63
2023-02-20T02:00:27.192Z,2.60
2023-02-20T02:03:09.797Z,2.83
2023-02-20T02:05:45.289Z,3.20
2023-02-20T02:08:20.388Z,3.00
2023-02-20T02:11:10.949Z,3.00
2023-02-20T02:13:43.995Z,2.87
2023-02-20T02:17:01.122Z,2.60
2023-02-20T02:20:17.342Z,2.80
2023-02-20T02:23:34.218Z,2.17
2023-02-20T02:26:32.385Z,2.83
2023-02-20T02:30:02.589Z,3.93
2023-02-20T02:32:42.546Z,2.77
2023-02-20T02:36:03.302Z,2.90
2023-02-20T02:38:59.607Z,3.60
2023-02-20T02:42:24.589Z,3.10
2023-02-20T02:45:37.387Z,2.40
2023-02-20T02:48:21.315Z,2.90
2023-02-20T02:50:57.474Z,2.93
2023-02-20T02:53:28.467Z,3.27
2023-02-20T02:56:19.296Z,2.80
2023-02-20T02:58:54.081Z,2.73
2023-02-20T03:01:25.225Z,2.70
2023-02-20T03:03:57.382Z,2.47
2023-02-20T03:06:37.966Z,2.83
2023-02-20T03:09:25.640Z,2.63
2023-02-20T03:11:58.744Z,2.80
2023-02-20T03:15:21.378Z,2.43
2023-02-20T03:18:10.596Z,2.80
2023-02-20T03:20:48.984Z,2.30
2023-02-20T03:23:27.290Z,3.40
2023-02-20T03:26:22.502Z,2.60
2023-02-20T03:29:03.541Z,2.87
2023-02-20T03:32:12.038Z,2.40
2023-02-20T03:35:02.837Z,2.43
2023-02-20T03:37:55.730Z,2.67
2023-02-20T03:40:47.077Z,3.03
2023-02-20T03:43:28.559Z,2.87
2023-02-20T03:46:04.635Z,2.47
2023-02-20T03:49:07.178Z,2.70
2023-02-20T03:51:56.862Z,2.33
2023-02-20T03:54:29.577Z,3.00
2023-02-20T03:57:15.607Z,2.83
2023-02-20T04:00:06.183Z,3.00
2023-02-20T04:02:43.002Z,2.60
2023-02-20T04:05:23.098Z,2.77
2023-02-20T04:08:14.683Z,2.50
2023-02-20T04:10:58.046Z,2.30
2023-02-20T04:13:30.695Z,3.10
2023-02-20T04:16:03.066Z,2.70
2023-02-20T04:18:35.861Z,2.80
2023-02-20T04:21:22.048Z,2.93
2023-02-20T04:24:07.868Z,2.57
2023-02-20T04:26:39.242Z,3.37
2023-02-20T04:29:10.546Z,2.53
2023-02-20T04:31:41.827Z,2.60
2023-02-20T04:34:12.758Z,2.70
2023-02-20T04:36:43.658Z,2.87
2023-02-20T04:39:14.696Z,3.30
2023-02-20T04:41:45.532Z,2.93
2023-02-20T04:44:31.279Z,2.90
2023-02-20T04:47:06.361Z,3.13
2023-02-20T04:49:37.284Z,2.87
2023-02-20T04:52:08.207Z,3.53
2023-02-20T04:54:39.070Z,2.93
2023-02-20T04:57:09.936Z,3.10
2023-02-20T04:59:40.832Z,3.00
2023-02-20T05:02:12.045Z,3.03
2023-02-20T05:04:42.898Z,3.30
2023-02-20T05:07:13.785Z,3.30
2023-02-20T05:09:44.658Z,3.20
2023-02-20T05:12:15.602Z,2.97
2023-02-20T05:14:46.714Z,3.20
2023-02-20T05:17:17.621Z,3.53
2023-02-20T05:19:48.510Z,3.37
2023-02-20T05:22:19.380Z,2.73
2023-02-20T05:24:51.787Z,3.10
2023-02-20T05:27:24.852Z,3.40
2023-02-20T05:29:58.452Z,2.90
2023-02-20T05:32:30.967Z,2.70
2023-02-20T05:35:01.956Z,3.10
2023-02-20T05:37:33.847Z,3.03
2023-02-20T05:40:05.833Z,3.37
2023-02-20T05:42:37.847Z,3.07
2023-02-20T05:45:09.386Z,3.60
2023-02-20T05:47:40.330Z,4.00
2023-02-20T05:50:11.212Z,3.60
2023-02-20T05:52:42.443Z,3.10
2023-02-20T05:55:13.333Z,3.33
2023-02-20T05:57:44.212Z,3.90
2023-02-20T06:00:15.596Z,3.30
2023-02-20T06:02:46.452Z,3.40
2023-02-20T06:05:18.031Z,4.30
2023-02-20T06:07:48.963Z,3.60
2023-02-20T06:10:20.556Z,3.50
2023-02-20T06:12:51.442Z,3.13
2023-02-20T06:15:22.414Z,2.77
2023-02-20T06:17:53.512Z,3.10
2023-02-20T06:20:24.349Z,3.37
2023-02-20T06:22:55.380Z,3.43
2023-02-20T06:25:26.228Z,3.40
2023-02-20T06:27:57.112Z,3.90
2023-02-20T06:30:28.013Z,3.07
2023-02-20T06:32:58.928Z,3.70
2023-02-20T06:35:29.816Z,4.10
2023-02-20T06:38:01.335Z,4.63
2023-02-20T06:40:32.272Z,4.60
2023-02-20T06:43:03.224Z,4.80
2023-02-20T06:45:34.130Z,3.80
2023-02-20T06:48:05.444Z,4.20
2023-02-20T06:50:36.348Z,4.40
2023-02-20T06:53:07.836Z,4.13
2023-02-20T06:55:38.659Z,3.90
2023-02-20T06:58:11.316Z,4.73
2023-02-20T07:00:42.356Z,4.57
2023-02-20T07:03:13.341Z,4.70
2023-02-20T07:05:45.133Z,4.73
2023-02-20T07:08:16.035Z,4.30
2023-02-20T07:10:46.905Z,5.10
2023-02-20T07:13:17.765Z,5.17
2023-02-20T07:15:49.864Z,4.60
2023-02-20T07:18:24.013Z,5.20
2023-02-20T07:20:55.357Z,4.37
2023-02-20T07:23:26.295Z,4.80
2023-02-20T07:25:57.326Z,4.87
2023-02-20T07:28:28.234Z,4.90
2023-02-20T07:30:59.074Z,4.90
2023-02-20T07:33:30.253Z,4.63
2023-02-20T07:36:01.292Z,4.90
2023-02-20T07:38:32.180Z,4.63
2023-02-20T07:41:03.864Z,5.30
2023-02-20T07:43:35.250Z,4.60
2023-02-20T07:46:06.191Z,4.70
2023-02-20T07:48:37.364Z,5.00
2023-02-20T07:51:08.343Z,4.57
2023-02-20T07:53:39.227Z,3.70
2023-02-20T07:56:10.142Z,4.13
2023-02-20T07:58:41.700Z,4.00
2023-02-20T08:01:12.677Z,4.13
2023-02-20T08:03:43.585Z,4.00
2023-02-20T08:06:18.340Z,3.17
2023-02-20T08:08:50.513Z,2.97
2023-02-20T08:11:23.183Z,3.33
2023-02-20T08:13:55.702Z,3.60
2023-02-20T08:16:28.496Z,4.00
2023-02-20T08:19:02.283Z,3.23
2023-02-20T08:21:33.233Z,3.00
2023-02-20T08:24:04.436Z,3.70
2023-02-20T08:26:35.651Z,3.23
2023-02-20T08:29:08.607Z,3.57
2023-02-20T08:31:39.601Z,3.37
2023-02-20T08:34:10.565Z,2.80
2023-02-20T08:36:41.934Z,2.97
2023-02-20T08:39:13.152Z,2.87
2023-02-20T08:41:45.613Z,3.43
2023-02-20T08:44:16.503Z,3.20
2023-02-20T08:46:50.042Z,2.97
2023-02-20T08:49:22.928Z,3.20
2023-02-20T08:51:56.833Z,3.13
2023-02-20T08:54:27.723Z,2.77
2023-02-20T08:56:58.665Z,3.37
2023-02-20T08:59:32.557Z,2.70
2023-02-20T09:02:03.456Z,3.10
2023-02-20T09:04:34.330Z,3.57
2023-02-20T09:07:05.222Z,3.37
2023-02-20T09:09:36.080Z,3.07
2023-02-20T09:12:07.732Z,3.50
2023-02-20T09:14:43.766Z,4.37
2023-02-20T09:17:14.728Z,2.80
2023-02-20T09:19:45.790Z,3.10
2023-02-20T09:22:17.110Z,2.53
2023-02-20T09:24:48.002Z,2.40
2023-02-20T09:27:18.991Z,2.30
2023-02-20T09:29:49.969Z,2.60
2023-02-20T09:32:20.983Z,2.27
2023-02-20T09:34:51.986Z,2.30
2023-02-20T09:37:22.854Z,2.53
2023-02-20T09:39:53.730Z,2.60
2023-02-20T09:42:55.547Z,2.07
2023-02-20T09:45:31.706Z,2.50
2023-02-20T09:48:37.272Z,2.50
2023-02-20T09:51:24.854Z,2.00
2023-02-20T09:54:16.717Z,2.30
2023-02-20T09:56:56.200Z,2.30
2023-02-20T09:59:45.845Z,2.90
2023-02-20T10:02:22.750Z,1.93
2023-02-20T10:05:02.577Z,2.10
2023-02-20T10:07:37.592Z,2.00
2023-02-20T10:10:39.436Z,2.00
2023-02-20T10:14:11.284Z,2.70
2023-02-20T10:16:55.751Z,1.90
2023-02-20T10:19:45.219Z,1.50
2023-02-20T10:22:33.248Z,1.97
2023-02-20T10:25:20.466Z,1.53
2023-02-20T10:28:13.189Z,2.20
2023-02-20T10:30:58.161Z,2.10
2023-02-20T10:33:47.692Z,2.10
2023-02-20T10:36:40.161Z,2.10
2023-02-20T10:39:18.527Z,2.67
2023-02-20T10:42:13.109Z,1.77
2023-02-20T10:45:10.712Z,1.90
2023-02-20T10:47:54.030Z,2.67
2023-02-20T10:51:02.282Z,2.40
2023-02-20T10:54:00.571Z,1.90
2023-02-20T10:56:35.640Z,1.93
2023-02-20T10:59:12.647Z,2.07
2023-02-20T11:01:45.229Z,1.83
2023-02-20T11:04:29.220Z,2.10
2023-02-20T11:07:07.567Z,1.70
2023-02-20T11:09:38.984Z,1.60
2023-02-20T11:12:41.087Z,1.90
2023-02-20T11:15:25.868Z,2.20
2023-02-20T11:17:59.310Z,1.50
2023-02-20T11:20:33.216Z,2.17
2023-02-20T11:23:05.145Z,1.63
2023-02-20T11:25:41.999Z,1.90
2023-02-20T11:28:26.774Z,1.50
2023-02-20T11:31:07.003Z,2.07
2023-02-20T11:33:47.274Z,1.97
2023-02-20T11:36:25.711Z,1.70
2023-02-20T11:39:00.449Z,1.83
2023-02-20T11:41:39.718Z,1.90
2023-02-20T11:44:10.595Z,1.83
2023-02-20T11:46:41.741Z,1.90
2023-02-20T11:49:26.298Z,1.60
2023-02-20T11:52:16.725Z,1.43
2023-02-20T11:55:09.636Z,1.90
2023-02-20T11:57:45.042Z,1.90
2023-02-20T12:00:24.371Z,1.77
2023-02-20T12:03:10.301Z,1.30
2023-02-20T12:05:47.561Z,1.67
2023-02-20T12:08:24.462Z,1.93
2023-02-20T12:11:01.143Z,1.97
2023-02-20T12:13:39.346Z,1.80
2023-02-20T12:16:51.835Z,1.67
2023-02-20T12:19:40.332Z,1.70
2023-02-20T12:22:14.918Z,1.83
2023-02-20T12:25:32.156Z,1.63
2023-02-20T12:28:22.500Z,2.10
2023-02-20T12:31:10.906Z,1.43
2023-02-20T12:33:57.205Z,1.60
2023-02-20T12:36:43.268Z,1.40
2023-02-20T12:39:47.034Z,1.43
2023-02-20T12:42:43.352Z,1.50
2023-02-20T12:45:52.938Z,1.20
2023-02-20T12:48:46.754Z,1.40
2023-02-20T12:51:29.116Z,1.60
2023-02-20T12:54:53.542Z,1.50
2023-02-20T12:57:58.804Z,1.60
2023-02-20T13:00:34.934Z,1.50
2023-02-20T13:03:17.285Z,1.60
2023-02-20T13:05:50.884Z,1.70
2023-02-20T13:08:54.868Z,1.40
2023-02-20T13:11:31.291Z,1.43
2023-02-20T13:14:14.387Z,1.30
2023-02-20T13:17:25.009Z,1.10
2023-02-20T13:20:19.421Z,1.17
2023-02-20T13:23:01.943Z,1.40
2023-02-20T13:25:43.667Z,1.00
2023-02-20T13:28:30.759Z,1.43
2023-02-20T13:31:37.392Z,0.93
2023-02-20T13:34:08.341Z,0.90
2023-02-20T13:36:59.276Z,0.80
2023-02-20T13:39:33.813Z,1.00
2023-02-20T13:42:35.646Z,1.20
2023-02-20T13:45:37.362Z,1.03
2023-02-20T13:48:37.771Z,1.43
2023-02-20T13:51:18.178Z,0.97
2023-02-20T13:53:57.146Z,1.37
2023-02-20T13:56:39.362Z,1.20
2023-02-20T13:59:18.364Z,0.90
2023-02-20T14:02:13.628Z,0.97
2023-02-20T14:04:57.268Z,0.77
2023-02-20T14:07:34.289Z,0.90
2023-02-20T14:10:14.902Z,0.90
2023-02-20T14:12:54.835Z,0.80
2023-02-20T14:15:26.970Z,0.70
2023-02-20T14:17:59.144Z,1.43
2023-02-20T14:20:36.469Z,1.30
2023-02-20T14:23:29.185Z,0.80
2023-02-20T14:26:04.189Z,1.00
2023-02-20T14:28:36.905Z,1.00
2023-02-20T14:31:34.941Z,1.53
2023-02-20T14:34:34.325Z,1.20
2023-02-20T14:37:24.725Z,1.33
2023-02-20T14:40:36.258Z,1.47
2023-02-20T14:43:17.633Z,1.27
2023-02-20T14:46:06.397Z,1.47
2023-02-20T14:48:41.943Z,1.10
2023-02-20T14:51:39.027Z,1.10
2023-02-20T14:54:25.578Z,1.33
2023-02-20T14:57:01.058Z,1.27
2023-02-20T14:59:38.820Z,1.53
2023-02-20T15:02:33.957Z,1.93
2023-02-20T15:05:16.506Z,1.50
2023-02-20T15:07:48.118Z,1.07
2023-02-20T15:10:40.121Z,1.40
2023-02-20T15:13:18.661Z,1.10
2023-02-20T15:16:13.396Z,1.60
2023-02-20T15:18:47.837Z,1.30
2023-02-20T15:21:42.450Z,1.80
2023-02-20T15:24:35.886Z,1.10
2023-02-20T15:27:16.268Z,1.10
2023-02-20T15:29:47.891Z,1.70
2023-02-20T15:32:25.298Z,1.23
2023-02-20T15:34:58.340Z,1.13
2023-02-20T15:37:38.608Z,1.23
2023-02-20T15:40:24.967Z,1.10
2023-02-20T15:42:57.262Z,1.50
2023-02-20T15:45:31.012Z,1.27
2023-02-20T15:48:01.927Z,1.40
2023-02-20T15:50:35.981Z,1.47
2023-02-20T15:53:08.705Z,1.53
2023-02-20T15:55:39.718Z,1.60
2023-02-20T15:58:39.933Z,1.40
2023-02-20T16:01:12.297Z,1.47
2023-02-20T16:03:53.391Z,1.23
2023-02-20T16:06:25.456Z,1.13
2023-02-20T16:08:56.503Z,1.87
2023-02-20T16:11:38.806Z,1.47
2023-02-20T16:14:14.063Z,1.20
2023-02-20T16:16:47.637Z,1.53
2023-02-20T16:19:28.113Z,1.30
2023-02-20T16:22:06.342Z,1.40
2023-02-20T16:24:40.219Z,1.97
2023-02-20T16:27:25.349Z,1.93
2023-02-20T16:29:58.138Z,1.53
2023-02-20T16:32:30.441Z,1.97
2023-02-20T16:35:01.859Z,1.97
2023-02-20T16:37:33.178Z,2.10
2023-02-20T16:40:04.853Z,1.87
2023-02-20T16:42:38.827Z,1.83
2023-02-20T16:45:15.949Z,1.90
2023-02-20T16:47:53.034Z,1.80
2023-02-20T16:50:29.982Z,1.40
2023-02-20T16:53:03.338Z,1.93
2023-02-20T16:55:37.238Z,2.60
2023-02-20T16:58:08.574Z,2.03
2023-02-20T17:00:54.908Z,2.00
2023-02-20T17:03:28.486Z,2.00
2023-02-20T17:05:59.990Z,2.83
2023-02-20T17:08:30.976Z,3.13
2023-02-20T17:11:02.020Z,2.57
2023-02-20T17:13:33.067Z,3.37
2023-02-20T17:16:04.179Z,4.33
2023-02-20T17:18:35.080Z,3.67
2023-02-20T17:21:06.688Z,3.50
2023-02-20T17:23:37.705Z,3.83
2023-02-20T17:26:13.824Z,3.90
2023-02-20T17:28:45.184Z,39.53
2023-02-20T17:31:16.440Z,12.73
2023-02-20T17:33:47.622Z,3.20
2023-02-20T17:36:18.563Z,4.70
2023-02-20T17:38:50.883Z,4.60
2023-02-20T17:41:22.629Z,3.60
2023-02-20T17:43:53.557Z,2.93
2023-02-20T17:46:24.637Z,3.70
2023-02-20T17:48:56.660Z,3.60
2023-02-20T17:51:27.541Z,3.40
2023-02-20T17:53:58.401Z,5.67
2023-02-20T17:56:29.292Z,5.53
2023-02-20T17:59:00.230Z,6.90
2023-02-20T18:01:31.055Z,5.37
2023-02-20T18:04:04.593Z,4.40
2023-02-20T18:06:37.602Z,4.40
2023-02-20T18:09:09.828Z,3.60
2023-02-20T18:11:42.763Z,3.53
2023-02-20T18:14:15.168Z,3.03
2023-02-20T18:16:46.393Z,11.53
2023-02-20T18:19:17.899Z,7.00
2023-02-20T18:21:49.884Z,4.70
2023-02-20T18:24:26.502Z,7.60
2023-02-20T18:26:58.187Z,4.70
2023-02-20T18:29:30.139Z,4.80
2023-02-20T18:32:01.601Z,4.87
2023-02-20T18:34:32.533Z,4.57
2023-02-20T18:37:03.414Z,5.33
2023-02-20T18:39:34.280Z,6.40
2023-02-20T18:42:05.307Z,4.90
2023-02-20T18:44:36.245Z,3.70
2023-02-20T18:47:09.281Z,4.23
2023-02-20T18:49:41.314Z,4.23
2023-02-20T18:52:12.164Z,3.57
2023-02-20T18:54:43.069Z,4.23
2023-02-20T18:57:14.181Z,4.60
2023-02-20T18:59:45.435Z,5.00
2023-02-20T19:02:16.995Z,4.90
2023-02-20T19:04:50.009Z,4.10
2023-02-20T19:07:20.849Z,4.23
2023-02-20T19:09:54.128Z,4.37
2023-02-20T19:12:25.060Z,4.70
2023-02-20T19:14:56.001Z,4.83
2023-02-20T19:17:26.951Z,4.60
2023-02-20T19:19:57.924Z,5.27
2023-02-20T19:22:30.250Z,5.67
2023-02-20T19:25:07.047Z,7.70
2023-02-20T19:27:37.986Z,5.90
2023-02-20T19:30:12.709Z,5.80
2023-02-20T19:32:46.347Z,5.77
2023-02-20T19:35:17.895Z,6.33
2023-02-20T19:37:48.748Z,6.50
2023-02-20T19:40:22.908Z,7.20
2023-02-20T19:42:54.048Z,5.97
2023-02-20T19:45:28.965Z,6.30
2023-02-20T19:47:59.929Z,5.70
2023-02-20T19:50:31.021Z,6.50
2023-02-20T19:53:02.492Z,5.67
2023-02-20T19:55:33.582Z,6.87
2023-02-20T19:58:04.446Z,7.60
2023-02-20T20:00:35.725Z,6.77
2023-02-20T20:03:06.969Z,7.87
2023-02-20T20:05:37.854Z,6.70
2023-02-20T20:08:08.793Z,8.10
2023-02-20T20:10:39.987Z,7.13
2023-02-20T20:13:10.853Z,6.17
2023-02-20T20:15:41.780Z,6.67
2023-02-20T20:18:12.671Z,7.30
2023-02-20T20:20:43.532Z,7.20
2023-02-20T20:23:14.635Z,8.13
2023-02-20T20:25:45.785Z,6.73
2023-02-20T20:28:21.019Z,8.30
2023-02-20T20:30:52.397Z,8.80
2023-02-20T20:33:23.383Z,7.83
2023-02-20T20:35:54.217Z,7.53
2023-02-20T20:38:25.260Z,7.53
2023-02-20T20:40:56.358Z,8.43
2023-02-20T20:43:27.278Z,7.87
2023-02-20T20:45:59.128Z,9.50
2023-02-20T20:48:30.337Z,7.93
2023-02-20T20:51:01.188Z,8.70
2023-02-20T20:53:32.045Z,9.40
2023-02-20T20:56:06.389Z,8.63
2023-02-20T20:58:37.359Z,11.07
2023-02-20T21:01:08.399Z,10.87
2023-02-20T21:03:39.342Z,10.30
2023-02-20T21:06:10.301Z,9.40
2023-02-20T21:08:41.201Z,8.50
2023-02-20T21:11:12.407Z,10.20
2023-02-20T21:13:49.204Z,8.43
2023-02-20T21:16:20.109Z,8.07
2023-02-20T21:18:51.041Z,8.40
2023-02-20T21:21:27.029Z,7.77
2023-02-20T21:23:58.547Z,8.13
2023-02-20T21:26:29.479Z,8.87
2023-02-20T21:29:00.413Z,7.93
2023-02-20T21:31:32.408Z,9.20
2023-02-20T21:34:04.026Z,8.03
2023-02-20T21:36:35.273Z,8.50
2023-02-20T21:39:06.450Z,9.60
2023-02-20T21:41:55.852Z,7.77
2023-02-20T21:44:28.518Z,8.90
2023-02-20T21:47:03.242Z,8.30
2023-02-20T21:49:36.766Z,8.70
2023-02-20T21:52:07.766Z,9.43
2023-02-20T21:54:40.172Z,8.53
2023-02-20T21:57:11.043Z,8.07
2023-02-20T21:59:42.040Z,7.83
2023-02-20T22:02:19.375Z,7.90
2023-02-20T22:04:50.712Z,7.50
2023-02-20T22:07:39.858Z,8.67
2023-02-20T22:10:29.765Z,7.37
2023-02-20T22:13:19.214Z,7.73
2023-02-20T22:16:08.696Z,9.10
2023-02-20T22:18:57.979Z,8.73
2023-02-20T22:21:47.409Z,17.10
2023-02-20T22:24:39.060Z,11.03
2023-02-20T22:27:29.149Z,9.20
2023-02-20T22:30:18.684Z,8.50
2023-02-20T22:33:11.889Z,8.00
2023-02-20T22:36:01.776Z,6.87
2023-02-20T22:38:51.391Z,7.37
2023-02-20T22:41:41.657Z,8.30
2023-02-20T22:44:30.936Z,7.90
2023-02-20T22:47:20.559Z,8.90
2023-02-20T22:50:10.224Z,7.50
2023-02-20T22:52:59.600Z,7.03
2023-02-20T22:55:48.833Z,7.97
2023-02-20T22:58:38.984Z,7.70
2023-02-20T23:01:28.669Z,7.73
2023-02-20T23:04:18.135Z,8.03
2023-02-20T23:07:09.632Z,7.40
2023-02-20T23:09:59.089Z,7.90
2023-02-20T23:12:48.598Z,8.10
2023-02-20T23:15:38.012Z,9.03
2023-02-20T23:18:27.405Z,8.83
2023-02-20T23:21:16.904Z,7.80
2023-02-20T23:24:07.023Z,8.37
2023-02-20T23:26:56.750Z,8.27
2023-02-20T23:29:46.212Z,8.07
2023-02-20T23:32:35.824Z,8.10
2023-02-20T23:35:26.196Z,8.30
2023-02-20T23:38:15.738Z,8.07
2023-02-20T23:41:05.226Z,7.67
2023-02-20T23:43:54.744Z,8.10
2023-02-20T23:46:44.170Z,8.90
2023-02-20T23:49:33.652Z,8.00
2023-02-20T23:52:23.154Z,8.07
2023-02-20T23:55:12.655Z,8.67
2023-02-20T23:58:02.363Z,7.50
